sensor_id;sensor_type;location;lat;lon;timestamp;P1;durP1;ratioP1;P2;durP2;ratioP2
2522;SDS011;1272;53.332;9.860;2023-06-22T00:00:56;3.63;;;3.43;;
2522;SDS011;1272;53.332;9.860;2023-06-22T00:03:23;3.20;;;3.00;;
2522;SDS011;1272;53.332;9.860;2023-06-22T00:05:50;3.67;;;3.47;;
2522;SDS011;1272;53.332;9.860;2023-06-22T00:08:16;3.37;;;3.10;;
2522;SDS011;1272;53.332;9.860;2023-06-22T00:10:43;4.00;;;3.70;;
2522;SDS011;1272;53.332;9.860;2023-06-22T00:13:10;3.00;;;2.80;;
2522;SDS011;1272;53.332;9.860;2023-06-22T00:15:37;3.50;;;3.30;;
2522;SDS011;1272;53.332;9.860;2023-06-22T00:18:05;3.60;;;3.23;;
2522;SDS011;1272;53.332;9.860;2023-06-22T00:20:32;3.70;;;3.50;;
2522;SDS011;1272;53.332;9.860;2023-06-22T00:22:58;4.13;;;3.93;;
2522;SDS011;1272;53.332;9.860;2023-06-22T00:25:24;4.20;;;3.80;;
2522;SDS011;1272;53.332;9.860;2023-06-22T00:27:50;2.90;;;2.80;;
2522;SDS011;1272;53.332;9.860;2023-06-22T00:30:16;3.53;;;3.33;;
2522;SDS011;1272;53.332;9.860;2023-06-22T00:32:43;4.10;;;3.80;;
2522;SDS011;1272;53.332;9.860;2023-06-22T00:35:09;3.97;;;3.70;;
2522;SDS011;1272;53.332;9.860;2023-06-22T00:37:37;4.30;;;4.00;;
2522;SDS011;1272;53.332;9.860;2023-06-22T00:40:06;3.13;;;3.03;;
2522;SDS011;1272;53.332;9.860;2023-06-22T00:42:33;3.80;;;3.60;;
2522;SDS011;1272;53.332;9.860;2023-06-22T00:44:59;4.20;;;3.90;;
2522;SDS011;1272;53.332;9.860;2023-06-22T00:47:26;3.30;;;3.10;;
2522;SDS011;1272;53.332;9.860;2023-06-22T00:49:53;4.50;;;4.20;;
2522;SDS011;1272;53.332;9.860;2023-06-22T00:52:20;4.00;;;3.70;;
2522;SDS011;1272;53.332;9.860;2023-06-22T00:54:52;4.80;;;4.47;;
2522;SDS011;1272;53.332;9.860;2023-06-22T00:57:18;4.47;;;4.07;;
2522;SDS011;1272;53.332;9.860;2023-06-22T00:59:45;4.40;;;4.10;;
2522;SDS011;1272;53.332;9.860;2023-06-22T01:02:12;4.30;;;4.00;;
2522;SDS011;1272;53.332;9.860;2023-06-22T01:04:39;4.80;;;4.40;;
2522;SDS011;1272;53.332;9.860;2023-06-22T01:09:41;4.90;;;4.50;;
2522;SDS011;1272;53.332;9.860;2023-06-22T01:12:21;5.10;;;4.60;;
2522;SDS011;1272;53.332;9.860;2023-06-22T01:15:02;4.30;;;3.90;;
2522;SDS011;1272;53.332;9.860;2023-06-22T01:17:35;4.40;;;4.10;;
2522;SDS011;1272;53.332;9.860;2023-06-22T01:20:05;5.53;;;3.80;;
2522;SDS011;1272;53.332;9.860;2023-06-22T01:22:35;4.17;;;3.87;;
2522;SDS011;1272;53.332;9.860;2023-06-22T01:31:11;4.83;;;4.43;;
2522;SDS011;1272;53.332;9.860;2023-06-22T01:33:43;4.43;;;3.57;;
2522;SDS011;1272;53.332;9.860;2023-06-22T01:36:10;3.87;;;3.57;;
2522;SDS011;1272;53.332;9.860;2023-06-22T01:38:37;3.90;;;3.67;;
2522;SDS011;1272;53.332;9.860;2023-06-22T01:41:04;4.00;;;3.70;;
2522;SDS011;1272;53.332;9.860;2023-06-22T01:43:30;3.73;;;3.53;;
2522;SDS011;1272;53.332;9.860;2023-06-22T01:45:59;4.37;;;4.07;;
2522;SDS011;1272;53.332;9.860;2023-06-22T01:48:26;3.60;;;3.40;;
2522;SDS011;1272;53.332;9.860;2023-06-22T01:50:52;3.97;;;3.70;;
2522;SDS011;1272;53.332;9.860;2023-06-22T01:53:20;4.17;;;3.87;;
2522;SDS011;1272;53.332;9.860;2023-06-22T01:55:47;4.40;;;4.10;;
2522;SDS011;1272;53.332;9.860;2023-06-22T01:58:13;3.80;;;3.50;;
2522;SDS011;1272;53.332;9.860;2023-06-22T02:00:39;4.57;;;4.27;;
2522;SDS011;1272;53.332;9.860;2023-06-22T02:03:13;3.60;;;3.33;;
2522;SDS011;1272;53.332;9.860;2023-06-22T02:05:51;3.03;;;2.83;;
2522;SDS011;1272;53.332;9.860;2023-06-22T02:08:26;3.93;;;3.73;;
2522;SDS011;1272;53.332;9.860;2023-06-22T02:10:55;4.40;;;4.10;;
2522;SDS011;1272;53.332;9.860;2023-06-22T02:13:24;5.03;;;4.00;;
2522;SDS011;1272;53.332;9.860;2023-06-22T02:15:50;3.73;;;3.53;;
2522;SDS011;1272;53.332;9.860;2023-06-22T02:18:17;3.63;;;3.37;;
2522;SDS011;1272;53.332;9.860;2023-06-22T02:20:42;5.20;;;3.57;;
2522;SDS011;1272;53.332;9.860;2023-06-22T02:23:08;3.40;;;3.20;;
2522;SDS011;1272;53.332;9.860;2023-06-22T02:25:34;3.47;;;3.27;;
2522;SDS011;1272;53.332;9.860;2023-06-22T02:28:00;3.60;;;3.40;;
2522;SDS011;1272;53.332;9.860;2023-06-22T02:30:26;3.57;;;3.37;;
2522;SDS011;1272;53.332;9.860;2023-06-22T02:32:52;3.70;;;3.03;;
2522;SDS011;1272;53.332;9.860;2023-06-22T02:35:25;3.50;;;3.20;;
2522;SDS011;1272;53.332;9.860;2023-06-22T02:37:59;4.43;;;3.60;;
2522;SDS011;1272;53.332;9.860;2023-06-22T02:40:26;3.30;;;3.10;;
2522;SDS011;1272;53.332;9.860;2023-06-22T02:42:52;3.17;;;2.97;;
2522;SDS011;1272;53.332;9.860;2023-06-22T02:45:18;3.00;;;2.90;;
2522;SDS011;1272;53.332;9.860;2023-06-22T02:47:44;3.70;;;3.40;;
2522;SDS011;1272;53.332;9.860;2023-06-22T02:50:10;3.30;;;3.10;;
2522;SDS011;1272;53.332;9.860;2023-06-22T02:52:36;4.03;;;3.73;;
2522;SDS011;1272;53.332;9.860;2023-06-22T02:55:03;3.30;;;3.10;;
2522;SDS011;1272;53.332;9.860;2023-06-22T02:57:29;4.83;;;3.70;;
2522;SDS011;1272;53.332;9.860;2023-06-22T02:59:55;3.50;;;3.30;;
2522;SDS011;1272;53.332;9.860;2023-06-22T03:02:20;3.27;;;3.10;;
2522;SDS011;1272;53.332;9.860;2023-06-22T03:04:46;3.30;;;3.00;;
2522;SDS011;1272;53.332;9.860;2023-06-22T03:07:14;3.87;;;3.67;;
2522;SDS011;1272;53.332;9.860;2023-06-22T03:09:40;3.90;;;3.60;;
2522;SDS011;1272;53.332;9.860;2023-06-22T03:12:08;3.00;;;2.80;;
2522;SDS011;1272;53.332;9.860;2023-06-22T03:14:34;4.00;;;3.70;;
2522;SDS011;1272;53.332;9.860;2023-06-22T03:16:59;3.30;;;3.10;;
2522;SDS011;1272;53.332;9.860;2023-06-22T03:19:28;3.40;;;3.20;;
2522;SDS011;1272;53.332;9.860;2023-06-22T03:21:56;6.30;;;3.73;;
2522;SDS011;1272;53.332;9.860;2023-06-22T03:24:22;3.57;;;3.23;;
2522;SDS011;1272;53.332;9.860;2023-06-22T03:26:48;3.40;;;3.20;;
2522;SDS011;1272;53.332;9.860;2023-06-22T03:29:14;3.83;;;3.63;;
2522;SDS011;1272;53.332;9.860;2023-06-22T03:31:40;3.70;;;3.43;;
2522;SDS011;1272;53.332;9.860;2023-06-22T03:34:06;3.00;;;2.90;;
2522;SDS011;1272;53.332;9.860;2023-06-22T03:36:32;4.27;;;3.87;;
2522;SDS011;1272;53.332;9.860;2023-06-22T03:38:57;3.87;;;3.67;;
2522;SDS011;1272;53.332;9.860;2023-06-22T03:41:23;3.50;;;3.20;;
2522;SDS011;1272;53.332;9.860;2023-06-22T03:43:49;3.13;;;2.93;;
2522;SDS011;1272;53.332;9.860;2023-06-22T03:46:15;3.70;;;3.50;;
2522;SDS011;1272;53.332;9.860;2023-06-22T03:48:40;3.80;;;3.53;;
2522;SDS011;1272;53.332;9.860;2023-06-22T03:51:06;3.83;;;3.63;;
2522;SDS011;1272;53.332;9.860;2023-06-22T03:53:32;3.50;;;3.30;;
2522;SDS011;1272;53.332;9.860;2023-06-22T03:55:58;3.63;;;3.33;;
2522;SDS011;1272;53.332;9.860;2023-06-22T03:58:23;3.47;;;3.23;;
2522;SDS011;1272;53.332;9.860;2023-06-22T04:00:50;3.80;;;3.60;;
2522;SDS011;1272;53.332;9.860;2023-06-22T04:03:17;3.10;;;2.90;;
2522;SDS011;1272;53.332;9.860;2023-06-22T04:05:46;3.67;;;3.43;;
2522;SDS011;1272;53.332;9.860;2023-06-22T04:08:13;3.57;;;3.37;;
2522;SDS011;1272;53.332;9.860;2023-06-22T04:10:39;4.27;;;4.00;;
2522;SDS011;1272;53.332;9.860;2023-06-22T04:13:05;3.30;;;3.10;;
2522;SDS011;1272;53.332;9.860;2023-06-22T04:15:32;4.10;;;3.80;;
2522;SDS011;1272;53.332;9.860;2023-06-22T04:17:57;5.70;;;3.90;;
2522;SDS011;1272;53.332;9.860;2023-06-22T04:20:23;3.63;;;3.43;;
2522;SDS011;1272;53.332;9.860;2023-06-22T04:22:54;4.40;;;4.10;;
2522;SDS011;1272;53.332;9.860;2023-06-22T04:25:20;4.53;;;4.13;;
2522;SDS011;1272;53.332;9.860;2023-06-22T04:27:47;4.20;;;3.90;;
2522;SDS011;1272;53.332;9.860;2023-06-22T04:30:13;4.03;;;3.63;;
2522;SDS011;1272;53.332;9.860;2023-06-22T04:32:43;4.17;;;3.97;;
2522;SDS011;1272;53.332;9.860;2023-06-22T04:35:09;5.00;;;4.40;;
2522;SDS011;1272;53.332;9.860;2023-06-22T04:37:35;5.13;;;4.73;;
2522;SDS011;1272;53.332;9.860;2023-06-22T04:40:01;4.30;;;3.90;;
2522;SDS011;1272;53.332;9.860;2023-06-22T04:42:29;3.77;;;3.47;;
2522;SDS011;1272;53.332;9.860;2023-06-22T04:44:55;4.50;;;3.90;;
2522;SDS011;1272;53.332;9.860;2023-06-22T04:47:21;4.23;;;4.00;;
2522;SDS011;1272;53.332;9.860;2023-06-22T04:49:46;3.80;;;3.60;;
2522;SDS011;1272;53.332;9.860;2023-06-22T04:52:13;4.90;;;4.60;;
2522;SDS011;1272;53.332;9.860;2023-06-22T04:54:42;4.10;;;3.80;;
2522;SDS011;1272;53.332;9.860;2023-06-22T04:57:12;4.77;;;4.47;;
2522;SDS011;1272;53.332;9.860;2023-06-22T04:59:38;3.83;;;3.57;;
2522;SDS011;1272;53.332;9.860;2023-06-22T05:02:06;4.03;;;3.73;;
2522;SDS011;1272;53.332;9.860;2023-06-22T05:04:33;4.40;;;4.00;;
2522;SDS011;1272;53.332;9.860;2023-06-22T05:07:00;4.73;;;4.33;;
2522;SDS011;1272;53.332;9.860;2023-06-22T05:09:27;3.90;;;3.60;;
2522;SDS011;1272;53.332;9.860;2023-06-22T05:11:54;5.00;;;4.67;;
2522;SDS011;1272;53.332;9.860;2023-06-22T05:14:21;5.03;;;4.63;;
2522;SDS011;1272;53.332;9.860;2023-06-22T05:16:48;5.30;;;4.77;;
2522;SDS011;1272;53.332;9.860;2023-06-22T05:19:14;5.20;;;4.80;;
2522;SDS011;1272;53.332;9.860;2023-06-22T05:21:40;5.97;;;4.93;;
2522;SDS011;1272;53.332;9.860;2023-06-22T05:24:06;6.97;;;4.77;;
2522;SDS011;1272;53.332;9.860;2023-06-22T05:26:32;6.10;;;5.50;;
2522;SDS011;1272;53.332;9.860;2023-06-22T05:28:59;6.30;;;4.87;;
2522;SDS011;1272;53.332;9.860;2023-06-22T05:31:26;4.43;;;4.03;;
2522;SDS011;1272;53.332;9.860;2023-06-22T05:33:52;4.07;;;3.63;;
2522;SDS011;1272;53.332;9.860;2023-06-22T05:36:19;5.67;;;5.17;;
2522;SDS011;1272;53.332;9.860;2023-06-22T05:38:46;5.03;;;4.63;;
2522;SDS011;1272;53.332;9.860;2023-06-22T05:41:12;5.30;;;4.80;;
2522;SDS011;1272;53.332;9.860;2023-06-22T05:43:39;4.37;;;4.07;;
2522;SDS011;1272;53.332;9.860;2023-06-22T05:46:06;4.77;;;4.37;;
2522;SDS011;1272;53.332;9.860;2023-06-22T05:48:31;5.80;;;5.10;;
2522;SDS011;1272;53.332;9.860;2023-06-22T05:50:57;6.40;;;4.83;;
2522;SDS011;1272;53.332;9.860;2023-06-22T05:53:23;5.63;;;4.93;;
2522;SDS011;1272;53.332;9.860;2023-06-22T05:55:49;4.87;;;4.27;;
2522;SDS011;1272;53.332;9.860;2023-06-22T05:58:15;4.20;;;3.90;;
2522;SDS011;1272;53.332;9.860;2023-06-22T06:00:41;6.90;;;4.90;;
2522;SDS011;1272;53.332;9.860;2023-06-22T06:03:08;4.50;;;4.10;;
2522;SDS011;1272;53.332;9.860;2023-06-22T06:05:35;5.07;;;4.67;;
2522;SDS011;1272;53.332;9.860;2023-06-22T06:08:02;4.67;;;3.97;;
2522;SDS011;1272;53.332;9.860;2023-06-22T06:10:33;4.20;;;3.83;;
2522;SDS011;1272;53.332;9.860;2023-06-22T06:12:59;4.83;;;4.43;;
2522;SDS011;1272;53.332;9.860;2023-06-22T06:15:29;4.63;;;3.70;;
2522;SDS011;1272;53.332;9.860;2023-06-22T06:17:55;5.10;;;3.70;;
2522;SDS011;1272;53.332;9.860;2023-06-22T06:20:21;4.23;;;3.90;;
2522;SDS011;1272;53.332;9.860;2023-06-22T06:22:49;4.57;;;4.27;;
2522;SDS011;1272;53.332;9.860;2023-06-22T06:25:15;5.67;;;5.13;;
2522;SDS011;1272;53.332;9.860;2023-06-22T06:27:45;4.37;;;3.97;;
2522;SDS011;1272;53.332;9.860;2023-06-22T06:30:12;4.00;;;3.70;;
2522;SDS011;1272;53.332;9.860;2023-06-22T06:32:39;4.20;;;3.90;;
2522;SDS011;1272;53.332;9.860;2023-06-22T06:35:06;4.17;;;3.87;;
2522;SDS011;1272;53.332;9.860;2023-06-22T06:37:36;4.97;;;4.57;;
2522;SDS011;1272;53.332;9.860;2023-06-22T06:40:03;3.80;;;3.43;;
2522;SDS011;1272;53.332;9.860;2023-06-22T06:42:35;4.07;;;3.67;;
2522;SDS011;1272;53.332;9.860;2023-06-22T06:45:03;5.23;;;4.17;;
2522;SDS011;1272;53.332;9.860;2023-06-22T06:47:30;3.83;;;3.57;;
2522;SDS011;1272;53.332;9.860;2023-06-22T06:49:56;4.57;;;4.03;;
2522;SDS011;1272;53.332;9.860;2023-06-22T06:52:21;4.00;;;3.23;;
2522;SDS011;1272;53.332;9.860;2023-06-22T06:54:47;2.83;;;2.73;;
2522;SDS011;1272;53.332;9.860;2023-06-22T06:57:13;3.83;;;3.00;;
2522;SDS011;1272;53.332;9.860;2023-06-22T06:59:40;2.90;;;2.70;;
2522;SDS011;1272;53.332;9.860;2023-06-22T07:02:05;3.13;;;2.93;;
2522;SDS011;1272;53.332;9.860;2023-06-22T07:04:31;2.87;;;2.70;;
2522;SDS011;1272;53.332;9.860;2023-06-22T07:06:58;2.90;;;2.70;;
2522;SDS011;1272;53.332;9.860;2023-06-22T07:09:25;4.10;;;3.70;;
2522;SDS011;1272;53.332;9.860;2023-06-22T07:11:51;3.93;;;2.80;;
2522;SDS011;1272;53.332;9.860;2023-06-22T07:14:17;3.13;;;2.83;;
2522;SDS011;1272;53.332;9.860;2023-06-22T07:16:42;4.50;;;3.27;;
2522;SDS011;1272;53.332;9.860;2023-06-22T07:19:10;3.07;;;2.77;;
2522;SDS011;1272;53.332;9.860;2023-06-22T07:21:37;2.87;;;2.67;;
2522;SDS011;1272;53.332;9.860;2023-06-22T07:24:04;3.43;;;3.13;;
2522;SDS011;1272;53.332;9.860;2023-06-22T07:26:31;3.40;;;3.10;;
2522;SDS011;1272;53.332;9.860;2023-06-22T07:28:57;3.43;;;3.23;;
2522;SDS011;1272;53.332;9.860;2023-06-22T07:31:25;3.30;;;3.07;;
2522;SDS011;1272;53.332;9.860;2023-06-22T07:33:52;3.53;;;3.20;;
2522;SDS011;1272;53.332;9.860;2023-06-22T07:36:18;3.90;;;3.60;;
2522;SDS011;1272;53.332;9.860;2023-06-22T07:38:43;3.43;;;3.13;;
2522;SDS011;1272;53.332;9.860;2023-06-22T07:41:09;3.47;;;3.27;;
2522;SDS011;1272;53.332;9.860;2023-06-22T07:43:35;3.27;;;3.07;;
2522;SDS011;1272;53.332;9.860;2023-06-22T07:46:05;4.00;;;3.70;;
2522;SDS011;1272;53.332;9.860;2023-06-22T07:48:31;4.23;;;3.20;;
2522;SDS011;1272;53.332;9.860;2023-06-22T07:50:57;3.17;;;2.97;;
2522;SDS011;1272;53.332;9.860;2023-06-22T07:53:23;3.67;;;3.37;;
2522;SDS011;1272;53.332;9.860;2023-06-22T07:55:49;5.30;;;3.67;;
2522;SDS011;1272;53.332;9.860;2023-06-22T07:58:15;3.50;;;2.80;;
2522;SDS011;1272;53.332;9.860;2023-06-22T08:00:43;3.00;;;2.80;;
2522;SDS011;1272;53.332;9.860;2023-06-22T08:03:09;3.70;;;3.40;;
2522;SDS011;1272;53.332;9.860;2023-06-22T08:05:35;2.90;;;2.80;;
2522;SDS011;1272;53.332;9.860;2023-06-22T08:08:00;4.10;;;3.33;;
2522;SDS011;1272;53.332;9.860;2023-06-22T08:10:26;3.93;;;3.53;;
2522;SDS011;1272;53.332;9.860;2023-06-22T08:12:52;3.00;;;2.80;;
2522;SDS011;1272;53.332;9.860;2023-06-22T08:15:18;2.70;;;2.60;;
2522;SDS011;1272;53.332;9.860;2023-06-22T08:17:44;2.87;;;2.67;;
2522;SDS011;1272;53.332;9.860;2023-06-22T08:20:13;4.00;;;3.70;;
2522;SDS011;1272;53.332;9.860;2023-06-22T08:22:39;3.03;;;2.83;;
2522;SDS011;1272;53.332;9.860;2023-06-22T08:25:06;3.47;;;3.00;;
2522;SDS011;1272;53.332;9.860;2023-06-22T08:27:32;3.07;;;2.87;;
2522;SDS011;1272;53.332;9.860;2023-06-22T08:29:58;3.80;;;3.60;;
2522;SDS011;1272;53.332;9.860;2023-06-22T08:32:25;3.80;;;3.50;;
2522;SDS011;1272;53.332;9.860;2023-06-22T08:34:53;5.23;;;3.80;;
2522;SDS011;1272;53.332;9.860;2023-06-22T08:37:19;4.60;;;4.20;;
2522;SDS011;1272;53.332;9.860;2023-06-22T08:39:45;3.83;;;3.50;;
2522;SDS011;1272;53.332;9.860;2023-06-22T08:42:11;3.07;;;2.87;;
2522;SDS011;1272;53.332;9.860;2023-06-22T08:44:37;3.93;;;3.63;;
2522;SDS011;1272;53.332;9.860;2023-06-22T08:47:03;3.07;;;2.80;;
2522;SDS011;1272;53.332;9.860;2023-06-22T08:49:29;3.63;;;3.10;;
2522;SDS011;1272;53.332;9.860;2023-06-22T08:51:55;3.47;;;2.87;;
2522;SDS011;1272;53.332;9.860;2023-06-22T08:54:21;3.30;;;3.10;;
2522;SDS011;1272;53.332;9.860;2023-06-22T08:56:47;2.93;;;2.73;;
2522;SDS011;1272;53.332;9.860;2023-06-22T08:59:13;3.97;;;3.60;;
2522;SDS011;1272;53.332;9.860;2023-06-22T09:01:39;2.73;;;2.53;;
2522;SDS011;1272;53.332;9.860;2023-06-22T09:04:05;3.40;;;3.10;;
2522;SDS011;1272;53.332;9.860;2023-06-22T09:06:32;3.50;;;3.20;;
2522;SDS011;1272;53.332;9.860;2023-06-22T09:08:58;3.47;;;3.17;;
2522;SDS011;1272;53.332;9.860;2023-06-22T09:11:25;5.70;;;3.07;;
2522;SDS011;1272;53.332;9.860;2023-06-22T09:13:51;3.33;;;3.13;;
2522;SDS011;1272;53.332;9.860;2023-06-22T09:16:18;2.77;;;2.67;;
2522;SDS011;1272;53.332;9.860;2023-06-22T09:18:47;4.43;;;3.00;;
2522;SDS011;1272;53.332;9.860;2023-06-22T09:21:13;3.30;;;3.10;;
2522;SDS011;1272;53.332;9.860;2023-06-22T09:23:39;3.20;;;2.90;;
2522;SDS011;1272;53.332;9.860;2023-06-22T09:26:05;4.57;;;3.53;;
2522;SDS011;1272;53.332;9.860;2023-06-22T09:28:30;3.90;;;3.60;;
2522;SDS011;1272;53.332;9.860;2023-06-22T09:30:56;3.73;;;3.53;;
2522;SDS011;1272;53.332;9.860;2023-06-22T09:33:24;4.27;;;3.80;;
2522;SDS011;1272;53.332;9.860;2023-06-22T09:35:51;4.23;;;3.87;;
2522;SDS011;1272;53.332;9.860;2023-06-22T09:38:17;3.23;;;3.03;;
2522;SDS011;1272;53.332;9.860;2023-06-22T09:40:42;6.57;;;3.23;;
2522;SDS011;1272;53.332;9.860;2023-06-22T09:43:08;6.70;;;3.20;;
2522;SDS011;1272;53.332;9.860;2023-06-22T09:45:34;3.33;;;3.03;;
2522;SDS011;1272;53.332;9.860;2023-06-22T09:47:59;3.53;;;3.33;;
2522;SDS011;1272;53.332;9.860;2023-06-22T09:50:25;4.77;;;4.37;;
2522;SDS011;1272;53.332;9.860;2023-06-22T09:52:51;3.63;;;3.40;;
2522;SDS011;1272;53.332;9.860;2023-06-22T09:55:20;3.77;;;3.50;;
2522;SDS011;1272;53.332;9.860;2023-06-22T09:57:46;3.77;;;3.47;;
2522;SDS011;1272;53.332;9.860;2023-06-22T10:00:12;3.97;;;3.67;;
2522;SDS011;1272;53.332;9.860;2023-06-22T10:02:42;3.27;;;2.97;;
2522;SDS011;1272;53.332;9.860;2023-06-22T10:05:08;3.33;;;3.13;;
2522;SDS011;1272;53.332;9.860;2023-06-22T10:07:34;4.07;;;3.80;;
2522;SDS011;1272;53.332;9.860;2023-06-22T10:10:04;4.17;;;3.77;;
2522;SDS011;1272;53.332;9.860;2023-06-22T10:12:31;3.33;;;3.13;;
2522;SDS011;1272;53.332;9.860;2023-06-22T10:14:57;4.20;;;3.90;;
2522;SDS011;1272;53.332;9.860;2023-06-22T10:17:22;3.40;;;3.10;;
2522;SDS011;1272;53.332;9.860;2023-06-22T10:19:48;3.70;;;3.40;;
2522;SDS011;1272;53.332;9.860;2023-06-22T10:22:14;3.30;;;3.10;;
2522;SDS011;1272;53.332;9.860;2023-06-22T10:24:39;3.17;;;2.97;;
2522;SDS011;1272;53.332;9.860;2023-06-22T10:27:10;3.80;;;3.50;;
2522;SDS011;1272;53.332;9.860;2023-06-22T10:29:36;3.43;;;3.23;;
2522;SDS011;1272;53.332;9.860;2023-06-22T10:32:02;3.17;;;2.97;;
2522;SDS011;1272;53.332;9.860;2023-06-22T10:34:28;3.60;;;3.40;;
2522;SDS011;1272;53.332;9.860;2023-06-22T10:36:54;3.90;;;3.60;;
2522;SDS011;1272;53.332;9.860;2023-06-22T10:39:20;3.67;;;3.47;;
2522;SDS011;1272;53.332;9.860;2023-06-22T10:41:45;4.10;;;3.73;;
2522;SDS011;1272;53.332;9.860;2023-06-22T10:44:11;4.73;;;3.80;;
2522;SDS011;1272;53.332;9.860;2023-06-22T10:46:37;3.97;;;3.77;;
2522;SDS011;1272;53.332;9.860;2023-06-22T10:49:03;3.77;;;3.40;;
2522;SDS011;1272;53.332;9.860;2023-06-22T10:51:29;3.70;;;3.50;;
2522;SDS011;1272;53.332;9.860;2023-06-22T10:53:56;4.20;;;3.80;;
2522;SDS011;1272;53.332;9.860;2023-06-22T10:56:22;2.93;;;2.80;;
2522;SDS011;1272;53.332;9.860;2023-06-22T10:58:48;4.50;;;4.10;;
2522;SDS011;1272;53.332;9.860;2023-06-22T11:01:13;4.00;;;3.80;;
2522;SDS011;1272;53.332;9.860;2023-06-22T11:03:39;3.87;;;3.67;;
2522;SDS011;1272;53.332;9.860;2023-06-22T11:06:05;3.30;;;3.10;;
2522;SDS011;1272;53.332;9.860;2023-06-22T11:08:30;3.33;;;3.13;;
2522;SDS011;1272;53.332;9.860;2023-06-22T11:10:56;3.77;;;3.47;;
2522;SDS011;1272;53.332;9.860;2023-06-22T11:13:22;3.40;;;3.20;;
2522;SDS011;1272;53.332;9.860;2023-06-22T11:15:48;3.27;;;3.07;;
2522;SDS011;1272;53.332;9.860;2023-06-22T11:18:13;3.70;;;3.43;;
2522;SDS011;1272;53.332;9.860;2023-06-22T11:20:39;4.27;;;3.97;;
2522;SDS011;1272;53.332;9.860;2023-06-22T11:23:05;4.40;;;4.10;;
2522;SDS011;1272;53.332;9.860;2023-06-22T11:25:31;4.50;;;4.20;;
2522;SDS011;1272;53.332;9.860;2023-06-22T11:28:00;4.40;;;4.20;;
2522;SDS011;1272;53.332;9.860;2023-06-22T11:30:29;4.00;;;3.80;;
2522;SDS011;1272;53.332;9.860;2023-06-22T11:32:58;3.90;;;3.67;;
2522;SDS011;1272;53.332;9.860;2023-06-22T11:35:25;3.30;;;3.10;;
2522;SDS011;1272;53.332;9.860;2023-06-22T11:37:50;4.93;;;4.63;;
2522;SDS011;1272;53.332;9.860;2023-06-22T11:40:16;3.93;;;3.63;;
2522;SDS011;1272;53.332;9.860;2023-06-22T11:42:42;4.20;;;3.80;;
2522;SDS011;1272;53.332;9.860;2023-06-22T11:45:08;4.70;;;4.30;;
2522;SDS011;1272;53.332;9.860;2023-06-22T11:47:34;3.60;;;3.40;;
2522;SDS011;1272;53.332;9.860;2023-06-22T11:50:01;4.00;;;3.80;;
2522;SDS011;1272;53.332;9.860;2023-06-22T11:52:27;4.30;;;4.10;;
2522;SDS011;1272;53.332;9.860;2023-06-22T11:54:53;4.10;;;3.80;;
2522;SDS011;1272;53.332;9.860;2023-06-22T11:57:19;4.90;;;4.50;;
2522;SDS011;1272;53.332;9.860;2023-06-22T11:59:45;5.23;;;4.73;;
2522;SDS011;1272;53.332;9.860;2023-06-22T12:02:10;4.20;;;4.00;;
2522;SDS011;1272;53.332;9.860;2023-06-22T12:04:36;4.30;;;4.00;;
2522;SDS011;1272;53.332;9.860;2023-06-22T12:07:02;3.90;;;3.60;;
2522;SDS011;1272;53.332;9.860;2023-06-22T12:09:29;4.23;;;3.97;;
2522;SDS011;1272;53.332;9.860;2023-06-22T12:11:54;4.40;;;4.20;;
2522;SDS011;1272;53.332;9.860;2023-06-22T12:14:20;4.30;;;4.00;;
2522;SDS011;1272;53.332;9.860;2023-06-22T12:16:46;4.00;;;3.77;;
2522;SDS011;1272;53.332;9.860;2023-06-22T12:19:12;4.50;;;4.20;;
2522;SDS011;1272;53.332;9.860;2023-06-22T12:21:38;4.70;;;4.40;;
2522;SDS011;1272;53.332;9.860;2023-06-22T12:24:05;4.30;;;4.10;;
2522;SDS011;1272;53.332;9.860;2023-06-22T12:26:31;5.17;;;4.77;;
2522;SDS011;1272;53.332;9.860;2023-06-22T12:28:57;4.70;;;4.40;;
2522;SDS011;1272;53.332;9.860;2023-06-22T12:31:22;4.90;;;4.60;;
2522;SDS011;1272;53.332;9.860;2023-06-22T12:33:48;5.10;;;4.80;;
2522;SDS011;1272;53.332;9.860;2023-06-22T12:36:14;3.93;;;3.73;;
2522;SDS011;1272;53.332;9.860;2023-06-22T12:38:41;4.53;;;4.23;;
2522;SDS011;1272;53.332;9.860;2023-06-22T12:41:07;4.73;;;4.43;;
2522;SDS011;1272;53.332;9.860;2023-06-22T12:43:34;4.63;;;4.23;;
2522;SDS011;1272;53.332;9.860;2023-06-22T12:46:00;4.53;;;4.33;;
2522;SDS011;1272;53.332;9.860;2023-06-22T12:48:26;4.93;;;4.43;;
2522;SDS011;1272;53.332;9.860;2023-06-22T12:50:52;4.30;;;4.07;;
2522;SDS011;1272;53.332;9.860;2023-06-22T12:53:18;5.07;;;4.77;;
2522;SDS011;1272;53.332;9.860;2023-06-22T12:55:44;5.30;;;4.97;;
2522;SDS011;1272;53.332;9.860;2023-06-22T12:58:10;5.70;;;5.10;;
2522;SDS011;1272;53.332;9.860;2023-06-22T13:00:36;4.40;;;4.10;;
2522;SDS011;1272;53.332;9.860;2023-06-22T13:03:02;4.40;;;4.17;;
2522;SDS011;1272;53.332;9.860;2023-06-22T13:05:28;4.43;;;4.20;;
2522;SDS011;1272;53.332;9.860;2023-06-22T13:07:55;4.60;;;4.20;;
2522;SDS011;1272;53.332;9.860;2023-06-22T13:10:21;5.60;;;5.10;;
2522;SDS011;1272;53.332;9.860;2023-06-22T13:12:47;4.50;;;4.20;;
2522;SDS011;1272;53.332;9.860;2023-06-22T13:15:12;5.00;;;4.70;;
2522;SDS011;1272;53.332;9.860;2023-06-22T13:17:38;4.97;;;4.40;;
2522;SDS011;1272;53.332;9.860;2023-06-22T13:20:04;4.20;;;3.93;;
2522;SDS011;1272;53.332;9.860;2023-06-22T13:22:31;13.17;;;4.90;;
2522;SDS011;1272;53.332;9.860;2023-06-22T13:24:59;4.70;;;4.30;;
2522;SDS011;1272;53.332;9.860;2023-06-22T13:27:25;5.20;;;4.80;;
2522;SDS011;1272;53.332;9.860;2023-06-22T13:29:51;5.00;;;4.50;;
2522;SDS011;1272;53.332;9.860;2023-06-22T13:32:17;4.60;;;4.37;;
2522;SDS011;1272;53.332;9.860;2023-06-22T13:34:43;5.53;;;5.13;;
2522;SDS011;1272;53.332;9.860;2023-06-22T13:37:09;4.67;;;4.37;;
2522;SDS011;1272;53.332;9.860;2023-06-22T13:39:35;4.43;;;4.13;;
2522;SDS011;1272;53.332;9.860;2023-06-22T13:42:00;4.80;;;4.40;;
2522;SDS011;1272;53.332;9.860;2023-06-22T13:44:26;4.73;;;4.43;;
2522;SDS011;1272;53.332;9.860;2023-06-22T13:46:54;5.00;;;4.60;;
2522;SDS011;1272;53.332;9.860;2023-06-22T13:49:20;5.83;;;4.90;;
2522;SDS011;1272;53.332;9.860;2023-06-22T13:51:49;5.33;;;5.03;;
2522;SDS011;1272;53.332;9.860;2023-06-22T13:54:15;5.80;;;4.60;;
2522;SDS011;1272;53.332;9.860;2023-06-22T13:56:41;5.30;;;4.90;;
2522;SDS011;1272;53.332;9.860;2023-06-22T13:59:07;5.97;;;5.47;;
2522;SDS011;1272;53.332;9.860;2023-06-22T14:01:34;4.47;;;4.23;;
2522;SDS011;1272;53.332;9.860;2023-06-22T14:04:01;3.87;;;3.67;;
2522;SDS011;1272;53.332;9.860;2023-06-22T14:06:29;4.40;;;4.20;;
2522;SDS011;1272;53.332;9.860;2023-06-22T14:08:55;4.73;;;4.33;;
2522;SDS011;1272;53.332;9.860;2023-06-22T14:11:21;5.13;;;4.83;;
2522;SDS011;1272;53.332;9.860;2023-06-22T14:13:49;5.13;;;4.83;;
2522;SDS011;1272;53.332;9.860;2023-06-22T14:16:15;5.30;;;4.70;;
2522;SDS011;1272;53.332;9.860;2023-06-22T14:18:41;4.40;;;4.10;;
2522;SDS011;1272;53.332;9.860;2023-06-22T14:21:07;5.27;;;4.87;;
2522;SDS011;1272;53.332;9.860;2023-06-22T14:23:33;5.43;;;5.00;;
2522;SDS011;1272;53.332;9.860;2023-06-22T14:26:01;5.03;;;4.73;;
2522;SDS011;1272;53.332;9.860;2023-06-22T14:28:27;5.50;;;5.20;;
2522;SDS011;1272;53.332;9.860;2023-06-22T14:30:53;6.00;;;5.50;;
2522;SDS011;1272;53.332;9.860;2023-06-22T14:33:18;5.83;;;5.27;;
2522;SDS011;1272;53.332;9.860;2023-06-22T14:35:44;5.67;;;5.10;;
2522;SDS011;1272;53.332;9.860;2023-06-22T14:38:10;5.13;;;4.83;;
2522;SDS011;1272;53.332;9.860;2023-06-22T14:40:35;4.83;;;4.43;;
2522;SDS011;1272;53.332;9.860;2023-06-22T14:43:01;5.40;;;4.90;;
2522;SDS011;1272;53.332;9.860;2023-06-22T14:45:27;5.00;;;4.50;;
2522;SDS011;1272;53.332;9.860;2023-06-22T14:47:52;5.60;;;5.27;;
2522;SDS011;1272;53.332;9.860;2023-06-22T14:50:18;5.30;;;5.00;;
2522;SDS011;1272;53.332;9.860;2023-06-22T14:52:44;4.90;;;4.60;;
2522;SDS011;1272;53.332;9.860;2023-06-22T14:55:09;5.37;;;5.00;;
2522;SDS011;1272;53.332;9.860;2023-06-22T14:57:35;4.67;;;4.37;;
2522;SDS011;1272;53.332;9.860;2023-06-22T15:00:01;5.50;;;5.10;;
2522;SDS011;1272;53.332;9.860;2023-06-22T15:02:27;6.17;;;5.67;;
2522;SDS011;1272;53.332;9.860;2023-06-22T15:04:53;5.60;;;5.30;;
2522;SDS011;1272;53.332;9.860;2023-06-22T15:07:19;5.03;;;4.73;;
2522;SDS011;1272;53.332;9.860;2023-06-22T15:09:45;5.00;;;4.70;;
2522;SDS011;1272;53.332;9.860;2023-06-22T15:12:11;5.23;;;4.83;;
2522;SDS011;1272;53.332;9.860;2023-06-22T15:14:39;5.30;;;5.00;;
2522;SDS011;1272;53.332;9.860;2023-06-22T15:17:08;5.30;;;5.00;;
2522;SDS011;1272;53.332;9.860;2023-06-22T15:19:37;5.53;;;5.13;;